Pendaries, New Mexico
Current Conditions -  °F | °C
As of 7:53 PM on Saturday 25 Oct 2014 (Local Time) from KLVS Reporting Station
Clear Clear  
Wind Chill: 59°   Ceiling: Unl
Heat Index: 59°   Visibility: 10mi
Dew Point: 23°   Wind: 13mph
Humidity: 25%   Direction: 220°SW
Pressure: 30.24"   Gusts: NA
Location:  35.8214°N, 105.333°W
Report Text: KLVS 260153Z AUTO 22011KT 10SM CLR 15/M05 A3024 RMK AO2 SLP168 T01501050
Loading
Personal Weather Stations






























Interactive Weather Map New forecast layout! Learn more

10-Day Weather Forecast

Advertisements
Track Severe Weather on mobile